createdAt,value
2023-05-18T00:02:24.426Z,9.2
2023-05-18T00:08:16.827Z,9.5
2023-05-18T00:14:07.508Z,9.4
2023-05-18T00:19:59.023Z,9.2
2023-05-18T00:25:51.565Z,9.2
2023-05-18T00:31:45.958Z,9
2023-05-18T00:37:38.672Z,8.9
2023-05-18T00:43:30.940Z,9
2023-05-18T00:49:23.039Z,8.6
2023-05-18T00:55:14.712Z,8.7
2023-05-18T01:01:06.313Z,8.4
2023-05-18T01:07:00.194Z,8.5
2023-05-18T01:12:53.554Z,8.5
2023-05-18T01:18:45.795Z,8.1
2023-05-18T01:24:39.102Z,8.4
2023-05-18T01:30:32.326Z,8.3
2023-05-18T01:36:25.187Z,8.3
2023-05-18T01:42:17.605Z,8.3
2023-05-18T01:48:10.602Z,8
2023-05-18T01:54:03.082Z,7.5
2023-05-18T01:59:56.644Z,7.7
2023-05-18T02:05:48.984Z,7.9
2023-05-18T02:11:40.924Z,7.7
2023-05-18T02:17:32.764Z,7.6
2023-05-18T02:23:25.628Z,7.6
2023-05-18T02:29:17.577Z,7.7
2023-05-18T02:35:10.408Z,7.4
2023-05-18T02:41:04.387Z,7.4
2023-05-18T02:46:58.149Z,7.3
2023-05-18T02:52:49.877Z,7.4
2023-05-18T02:58:41.307Z,7.1
2023-05-18T03:04:34.528Z,7.2
2023-05-18T03:10:25.960Z,7.2
2023-05-18T03:16:18.221Z,7.1
2023-05-18T03:22:11.162Z,7
2023-05-18T03:28:03.680Z,6.8
2023-05-18T03:33:56.182Z,6.7
2023-05-18T03:39:48.322Z,6.7
2023-05-18T03:45:40.540Z,6.7
2023-05-18T03:51:34.219Z,6.6
2023-05-18T03:57:28.931Z,6.7
2023-05-18T04:03:21.058Z,6.4
2023-05-18T04:09:13.718Z,6.5
2023-05-18T04:15:06.330Z,6.7
2023-05-18T04:20:58.939Z,6.5
2023-05-18T04:26:50.916Z,7.1
2023-05-18T04:32:43.316Z,6.7
2023-05-18T04:38:35.400Z,7.1
2023-05-18T04:44:27.487Z,7.7
2023-05-18T04:50:20.509Z,7.9
2023-05-18T04:56:13.134Z,8.3
2023-05-18T05:02:05.047Z,8.6
2023-05-18T05:07:57.476Z,9.3
2023-05-18T05:13:49.985Z,9.5
2023-05-18T05:19:42.044Z,9.9
2023-05-18T05:25:34.362Z,10.1
2023-05-18T05:31:26.249Z,10.4
2023-05-18T05:37:18.786Z,15.8
2023-05-18T05:43:11.903Z,17.7
2023-05-18T05:49:06.669Z,18.3
2023-05-18T05:55:00.442Z,18.5
2023-05-18T06:00:53.256Z,14
2023-05-18T06:06:46.431Z,14
2023-05-18T06:12:38.718Z,13.6
2023-05-18T06:18:31.541Z,13.9
2023-05-18T06:24:19.815Z,13.1
2023-05-18T06:30:11.647Z,12.1
2023-05-18T06:36:03.510Z,11.8
2023-05-18T06:41:59.752Z,11.9
2023-05-18T06:47:52.067Z,11.9
2023-05-18T06:53:45.211Z,11.7
2023-05-18T06:59:37.259Z,11.6
2023-05-18T07:05:30.039Z,11.9
2023-05-18T07:11:26.815Z,11.2
2023-05-18T07:17:21.687Z,11.9
2023-05-18T07:23:14.799Z,12
2023-05-18T07:29:07.087Z,11.8
2023-05-18T07:34:58.915Z,11.4
2023-05-18T07:41:01.536Z,11.6
2023-05-18T07:46:51.976Z,11.4
2023-05-18T07:52:44.985Z,11.6
2023-05-18T07:58:36.956Z,11.6
2023-05-18T08:04:30.166Z,12
2023-05-18T08:10:22.656Z,11.8
2023-05-18T08:16:16.503Z,12.1
2023-05-18T08:23:17.969Z,12.1
2023-05-18T08:29:09.716Z,12.2
2023-05-18T08:35:03.210Z,12.1
2023-05-18T08:40:55.617Z,12.6
2023-05-18T08:46:51.057Z,12.4
2023-05-18T08:52:44.246Z,12.4
2023-05-18T08:58:36.318Z,12.6
2023-05-18T09:04:29.424Z,12.6
2023-05-18T09:10:22.245Z,12.8
2023-05-18T09:16:14.611Z,13.1
2023-05-18T09:22:07.051Z,13.4
2023-05-18T09:27:59.539Z,13.6
2023-05-18T09:33:51.845Z,13.6
2023-05-18T09:39:44.184Z,13.7
2023-05-18T09:45:36.134Z,13.9
2023-05-18T09:51:28.486Z,14.2
2023-05-18T09:57:20.630Z,14.5
2023-05-18T10:03:12.402Z,14.6
2023-05-18T10:10:09.430Z,14.3
2023-05-18T10:16:00.435Z,14.6
2023-05-18T10:21:52.362Z,14.7
2023-05-18T10:27:44.288Z,15
2023-05-18T10:33:36.333Z,15.1
2023-05-18T10:39:28.147Z,15.8
2023-05-18T10:45:20.285Z,15.7
2023-05-18T10:51:12.270Z,15.2
2023-05-18T10:57:05.152Z,14.9
2023-05-18T11:02:57.097Z,15.4
2023-05-18T11:08:49.261Z,15.4
2023-05-18T11:14:39.340Z,15.4
2023-05-18T11:20:31.898Z,15.8
2023-05-18T11:26:23.366Z,15.6
2023-05-18T11:32:18.997Z,15.8
2023-05-18T11:38:19.780Z,15.6
2023-05-18T11:44:12.828Z,16.1
2023-05-18T11:50:05.269Z,16.1
2023-05-18T11:55:58.113Z,16.3
2023-05-18T12:01:50.931Z,16.3
2023-05-18T12:07:42.117Z,16.6
2023-05-18T12:13:33.889Z,16.8
2023-05-18T12:19:24.077Z,16.6
2023-05-18T12:25:16.868Z,16.5
2023-05-18T12:31:08.993Z,16.7
2023-05-18T12:37:00.983Z,16.9
2023-05-18T12:42:53.259Z,17.2
2023-05-18T12:48:45.373Z,17.2
2023-05-18T12:54:37.485Z,17.2
2023-05-18T13:00:29.623Z,17
2023-05-18T13:06:21.815Z,17.7
2023-05-18T13:12:16.369Z,17.6
2023-05-18T13:18:08.348Z,17.3
2023-05-18T13:24:00.422Z,17.3
2023-05-18T13:29:52.447Z,17.4
2023-05-18T13:35:45.117Z,17.5
2023-05-18T13:41:38.028Z,17.6
2023-05-18T13:47:29.961Z,17.7
2023-05-18T13:53:22.233Z,17.6
2023-05-18T13:59:14.285Z,17.7
2023-05-18T14:05:07.047Z,17.8
2023-05-18T14:11:00.649Z,17.9
2023-05-18T14:16:53.412Z,18
2023-05-18T14:22:47.298Z,18.1
2023-05-18T14:28:40.140Z,18.4
2023-05-18T14:34:31.044Z,18.1
2023-05-18T14:40:24.375Z,18.4
2023-05-18T14:46:18.052Z,18.5
2023-05-18T14:52:12.653Z,18.5
2023-05-18T14:58:05.194Z,18.8
2023-05-18T15:03:59.384Z,18.6
2023-05-18T15:09:54.112Z,18.8
2023-05-18T15:15:46.295Z,18.6
2023-05-18T15:21:38.279Z,18.9
2023-05-18T15:27:30.404Z,18.7
2023-05-18T15:33:22.480Z,18.9
2023-05-18T15:39:14.643Z,18.9
2023-05-18T15:45:07.390Z,19
2023-05-18T15:50:59.720Z,19.1
2023-05-18T15:56:52.000Z,19
2023-05-18T16:02:44.136Z,18.8
2023-05-18T16:08:37.163Z,18.9
2023-05-18T16:14:29.432Z,19.1
2023-05-18T16:20:21.485Z,19
2023-05-18T16:26:14.022Z,18.9
2023-05-18T16:32:06.117Z,19
2023-05-18T16:37:58.375Z,18.9
2023-05-18T16:43:51.299Z,19
2023-05-18T16:50:52.798Z,18.8
2023-05-18T16:56:46.007Z,18.8
2023-05-18T17:02:38.419Z,18.9
2023-05-18T17:08:29.165Z,18.9
2023-05-18T17:14:22.304Z,18.9
2023-05-18T17:20:16.205Z,18.6
2023-05-18T17:26:09.841Z,18.6
2023-05-18T17:32:03.002Z,18.7
2023-05-18T17:37:55.073Z,18.5
2023-05-18T17:43:48.262Z,18.4
2023-05-18T17:49:42.394Z,18.3
2023-05-18T17:55:32.978Z,18.2
2023-05-18T18:01:27.211Z,18.2
2023-05-18T18:07:18.967Z,17.9
2023-05-18T18:13:11.645Z,17.9
2023-05-18T18:19:02.978Z,17.7
2023-05-18T18:24:56.576Z,17.6
2023-05-18T18:30:48.352Z,17.6
2023-05-18T18:36:42.058Z,17.5
2023-05-18T18:42:34.809Z,17.3
2023-05-18T18:48:28.724Z,17.2
2023-05-18T18:54:21.923Z,17
2023-05-18T19:00:15.065Z,17
2023-05-18T19:06:07.626Z,16.8
2023-05-18T19:12:00.634Z,16.7
2023-05-18T19:17:54.603Z,16.5
2023-05-18T19:23:45.713Z,16.3
2023-05-18T19:29:37.417Z,15.8
2023-05-18T19:35:29.530Z,15.8
2023-05-18T19:41:24.678Z,15.6
2023-05-18T19:47:18.018Z,15.3
2023-05-18T19:53:12.378Z,15.2
2023-05-18T19:59:03.874Z,15
2023-05-18T20:04:57.334Z,14.9
2023-05-18T20:10:50.464Z,14.8
2023-05-18T20:16:44.422Z,14.6
2023-05-18T20:22:37.472Z,14.5
2023-05-18T20:28:30.725Z,14.2
2023-05-18T20:34:22.974Z,13.6
2023-05-18T20:40:18.720Z,13.9
2023-05-18T20:46:12.298Z,13.6
2023-05-18T20:52:06.151Z,13.4
2023-05-18T20:57:58.528Z,13.4
2023-05-18T21:03:50.569Z,13.4
2023-05-18T21:09:44.465Z,12.7
2023-05-18T21:15:36.651Z,12.9
2023-05-18T21:21:29.944Z,12.9
2023-05-18T21:27:21.302Z,12.8
2023-05-18T21:33:13.291Z,12.7
2023-05-18T21:39:05.444Z,12.5
2023-05-18T21:44:58.373Z,12.5
2023-05-18T21:50:50.901Z,12.3
2023-05-18T21:56:43.027Z,12.4
2023-05-18T22:02:34.207Z,12.2
2023-05-18T22:08:26.420Z,12.3
2023-05-18T22:14:18.739Z,12
2023-05-18T22:20:12.364Z,12.1
2023-05-18T22:26:10.553Z,11.8
2023-05-18T22:32:02.511Z,11.6
2023-05-18T22:37:54.430Z,11.6
2023-05-18T22:43:47.068Z,11.6
2023-05-18T22:49:38.668Z,11.4
2023-05-18T22:55:30.397Z,11.5
2023-05-18T23:01:22.318Z,11.4
2023-05-18T23:07:13.505Z,11.2
2023-05-18T23:13:05.283Z,11
2023-05-18T23:18:57.519Z,11.1
2023-05-18T23:24:49.918Z,10.8
2023-05-18T23:30:42.138Z,10.7
2023-05-18T23:36:34.492Z,10.9
2023-05-18T23:42:24.105Z,10.7
2023-05-18T23:48:15.980Z,10.5
2023-05-18T23:54:07.538Z,10.1
